sensor_id;sensor_type;location;lat;lon;timestamp;temperature;humidity
3923;DHT22;1976;51.694;6.256;2022-12-22T00:02:39;9.50;99.90
3923;DHT22;1976;51.694;6.256;2022-12-22T00:05:24;9.50;99.90
3923;DHT22;1976;51.694;6.256;2022-12-22T00:08:08;9.50;99.90
3923;DHT22;1976;51.694;6.256;2022-12-22T00:10:54;9.50;99.90
3923;DHT22;1976;51.694;6.256;2022-12-22T00:13:40;9.50;99.90
3923;DHT22;1976;51.694;6.256;2022-12-22T00:16:31;9.50;99.90
3923;DHT22;1976;51.694;6.256;2022-12-22T00:19:16;9.50;99.90
3923;DHT22;1976;51.694;6.256;2022-12-22T00:22:06;9.50;99.90
3923;DHT22;1976;51.694;6.256;2022-12-22T00:24:54;9.50;99.90
3923;DHT22;1976;51.694;6.256;2022-12-22T00:27:39;9.50;99.90
3923;DHT22;1976;51.694;6.256;2022-12-22T00:30:23;9.50;99.90
3923;DHT22;1976;51.694;6.256;2022-12-22T00:33:10;9.40;99.90
3923;DHT22;1976;51.694;6.256;2022-12-22T00:35:56;9.50;99.90
3923;DHT22;1976;51.694;6.256;2022-12-22T00:38:40;9.60;99.90
3923;DHT22;1976;51.694;6.256;2022-12-22T00:41:24;9.60;99.90
3923;DHT22;1976;51.694;6.256;2022-12-22T00:44:08;9.60;99.90
3923;DHT22;1976;51.694;6.256;2022-12-22T00:46:52;9.70;99.90
3923;DHT22;1976;51.694;6.256;2022-12-22T00:49:36;9.80;99.90
3923;DHT22;1976;51.694;6.256;2022-12-22T00:52:23;9.70;99.90
3923;DHT22;1976;51.694;6.256;2022-12-22T00:55:16;9.70;99.90
3923;DHT22;1976;51.694;6.256;2022-12-22T00:58:02;9.70;99.90
3923;DHT22;1976;51.694;6.256;2022-12-22T01:00:47;9.70;99.90
3923;DHT22;1976;51.694;6.256;2022-12-22T01:03:31;9.60;99.90
3923;DHT22;1976;51.694;6.256;2022-12-22T01:06:15;9.60;99.90
3923;DHT22;1976;51.694;6.256;2022-12-22T01:08:59;9.60;99.90
3923;DHT22;1976;51.694;6.256;2022-12-22T01:11:44;9.50;99.90
3923;DHT22;1976;51.694;6.256;2022-12-22T01:14:28;9.50;99.90
3923;DHT22;1976;51.694;6.256;2022-12-22T01:17:12;9.50;99.90
3923;DHT22;1976;51.694;6.256;2022-12-22T01:19:55;9.50;99.90
3923;DHT22;1976;51.694;6.256;2022-12-22T01:22:40;9.50;99.90
3923;DHT22;1976;51.694;6.256;2022-12-22T01:25:25;9.60;99.90
3923;DHT22;1976;51.694;6.256;2022-12-22T01:28:15;9.70;99.90
3923;DHT22;1976;51.694;6.256;2022-12-22T01:31:30;9.80;99.90
3923;DHT22;1976;51.694;6.256;2022-12-22T01:34:15;9.80;99.90
3923;DHT22;1976;51.694;6.256;2022-12-22T01:39:44;9.80;99.90
3923;DHT22;1976;51.694;6.256;2022-12-22T01:42:32;9.80;99.90
3923;DHT22;1976;51.694;6.256;2022-12-22T01:48:03;9.80;99.90
3923;DHT22;1976;51.694;6.256;2022-12-22T01:50:48;9.80;99.90
3923;DHT22;1976;51.694;6.256;2022-12-22T01:53:32;9.80;99.90
3923;DHT22;1976;51.694;6.256;2022-12-22T01:56:18;9.80;99.90
3923;DHT22;1976;51.694;6.256;2022-12-22T01:59:03;9.80;99.90
3923;DHT22;1976;51.694;6.256;2022-12-22T02:01:48;9.80;99.90
3923;DHT22;1976;51.694;6.256;2022-12-22T02:04:35;9.80;99.90
3923;DHT22;1976;51.694;6.256;2022-12-22T02:16:38;9.70;99.90
3923;DHT22;1976;51.694;6.256;2022-12-22T02:22:34;9.80;99.90
3923;DHT22;1976;51.694;6.256;2022-12-22T02:25:30;9.80;99.90
3923;DHT22;1976;51.694;6.256;2022-12-22T02:28:15;9.80;99.90
3923;DHT22;1976;51.694;6.256;2022-12-22T02:30:59;9.80;99.90
3923;DHT22;1976;51.694;6.256;2022-12-22T02:33:44;9.80;99.90
3923;DHT22;1976;51.694;6.256;2022-12-22T02:39:49;9.90;99.90
3923;DHT22;1976;51.694;6.256;2022-12-22T02:42:45;10.00;99.90
3923;DHT22;1976;51.694;6.256;2022-12-22T02:45:33;10.10;99.90
3923;DHT22;1976;51.694;6.256;2022-12-22T02:48:19;10.00;99.90
3923;DHT22;1976;51.694;6.256;2022-12-22T02:51:10;10.00;99.90
3923;DHT22;1976;51.694;6.256;2022-12-22T02:53:57;9.90;99.90
3923;DHT22;1976;51.694;6.256;2022-12-22T02:56:42;9.90;99.90
3923;DHT22;1976;51.694;6.256;2022-12-22T02:59:26;9.90;99.90
3923;DHT22;1976;51.694;6.256;2022-12-22T03:02:11;9.90;99.90
3923;DHT22;1976;51.694;6.256;2022-12-22T03:07:40;10.10;99.90
3923;DHT22;1976;51.694;6.256;2022-12-22T03:10:24;10.10;99.90
3923;DHT22;1976;51.694;6.256;2022-12-22T03:13:09;10.20;99.90
3923;DHT22;1976;51.694;6.256;2022-12-22T03:15:53;10.20;99.90
3923;DHT22;1976;51.694;6.256;2022-12-22T03:18:37;10.20;99.90
3923;DHT22;1976;51.694;6.256;2022-12-22T03:21:21;10.20;99.90
3923;DHT22;1976;51.694;6.256;2022-12-22T03:24:05;10.20;99.90
3923;DHT22;1976;51.694;6.256;2022-12-22T03:26:50;10.20;99.90
3923;DHT22;1976;51.694;6.256;2022-12-22T03:29:15;10.30;99.90
3923;DHT22;1976;51.694;6.256;2022-12-22T03:31:41;10.30;99.90
3923;DHT22;1976;51.694;6.256;2022-12-22T03:34:07;10.30;99.90
3923;DHT22;1976;51.694;6.256;2022-12-22T03:36:33;10.40;99.90
3923;DHT22;1976;51.694;6.256;2022-12-22T03:38:58;10.40;99.90
3923;DHT22;1976;51.694;6.256;2022-12-22T03:41:24;10.40;99.90
3923;DHT22;1976;51.694;6.256;2022-12-22T03:44:08;10.50;99.90
3923;DHT22;1976;51.694;6.256;2022-12-22T03:46:52;10.50;99.90
3923;DHT22;1976;51.694;6.256;2022-12-22T03:49:18;10.40;99.90
3923;DHT22;1976;51.694;6.256;2022-12-22T03:51:49;10.40;99.90
3923;DHT22;1976;51.694;6.256;2022-12-22T03:54:17;10.50;99.90
3923;DHT22;1976;51.694;6.256;2022-12-22T03:56:43;10.50;99.90
3923;DHT22;1976;51.694;6.256;2022-12-22T03:59:10;10.50;99.90
3923;DHT22;1976;51.694;6.256;2022-12-22T04:01:41;10.50;99.90
3923;DHT22;1976;51.694;6.256;2022-12-22T04:04:07;10.60;99.90
3923;DHT22;1976;51.694;6.256;2022-12-22T04:06:33;10.60;99.90
3923;DHT22;1976;51.694;6.256;2022-12-22T04:08:58;10.60;99.90
3923;DHT22;1976;51.694;6.256;2022-12-22T04:11:24;10.60;99.90
3923;DHT22;1976;51.694;6.256;2022-12-22T04:14:08;10.70;99.90
3923;DHT22;1976;51.694;6.256;2022-12-22T04:16:34;10.70;99.90
3923;DHT22;1976;51.694;6.256;2022-12-22T04:18:59;10.70;99.90
3923;DHT22;1976;51.694;6.256;2022-12-22T04:21:26;10.70;99.90
3923;DHT22;1976;51.694;6.256;2022-12-22T04:23:52;10.60;99.90
3923;DHT22;1976;51.694;6.256;2022-12-22T04:26:19;10.60;99.90
3923;DHT22;1976;51.694;6.256;2022-12-22T04:28:45;10.60;99.90
3923;DHT22;1976;51.694;6.256;2022-12-22T04:31:11;10.60;99.90
3923;DHT22;1976;51.694;6.256;2022-12-22T04:33:37;10.50;99.90
3923;DHT22;1976;51.694;6.256;2022-12-22T04:36:03;10.50;99.90
3923;DHT22;1976;51.694;6.256;2022-12-22T04:38:29;10.40;99.90
3923;DHT22;1976;51.694;6.256;2022-12-22T04:40:54;10.40;99.90
3923;DHT22;1976;51.694;6.256;2022-12-22T04:43:20;10.40;99.90
3923;DHT22;1976;51.694;6.256;2022-12-22T04:45:46;10.30;99.90
3923;DHT22;1976;51.694;6.256;2022-12-22T04:48:11;10.20;99.90
3923;DHT22;1976;51.694;6.256;2022-12-22T04:50:37;10.20;99.90
3923;DHT22;1976;51.694;6.256;2022-12-22T04:53:03;10.10;99.90
3923;DHT22;1976;51.694;6.256;2022-12-22T04:55:29;10.10;99.90
3923;DHT22;1976;51.694;6.256;2022-12-22T04:57:54;10.10;99.90
3923;DHT22;1976;51.694;6.256;2022-12-22T05:00:20;10.00;99.90
3923;DHT22;1976;51.694;6.256;2022-12-22T05:02:45;9.90;99.90
3923;DHT22;1976;51.694;6.256;2022-12-22T05:05:11;9.90;99.90
3923;DHT22;1976;51.694;6.256;2022-12-22T05:07:37;9.80;99.90
3923;DHT22;1976;51.694;6.256;2022-12-22T05:10:04;9.80;99.90
3923;DHT22;1976;51.694;6.256;2022-12-22T05:12:29;9.90;99.90
3923;DHT22;1976;51.694;6.256;2022-12-22T05:15:14;9.80;99.90
3923;DHT22;1976;51.694;6.256;2022-12-22T05:17:39;9.80;99.90
3923;DHT22;1976;51.694;6.256;2022-12-22T05:20:05;9.80;99.90
3923;DHT22;1976;51.694;6.256;2022-12-22T05:22:31;9.80;99.90
3923;DHT22;1976;51.694;6.256;2022-12-22T05:24:57;9.80;99.90
3923;DHT22;1976;51.694;6.256;2022-12-22T05:27:22;9.80;99.90
3923;DHT22;1976;51.694;6.256;2022-12-22T05:32:14;9.80;99.90
3923;DHT22;1976;51.694;6.256;2022-12-22T05:34:40;9.90;99.90
3923;DHT22;1976;51.694;6.256;2022-12-22T05:37:05;9.90;99.90
3923;DHT22;1976;51.694;6.256;2022-12-22T05:39:31;10.00;99.90
3923;DHT22;1976;51.694;6.256;2022-12-22T05:41:56;10.00;99.90
3923;DHT22;1976;51.694;6.256;2022-12-22T05:44:22;10.00;99.90
3923;DHT22;1976;51.694;6.256;2022-12-22T05:46:51;10.00;99.90
3923;DHT22;1976;51.694;6.256;2022-12-22T05:49:17;9.90;99.90
3923;DHT22;1976;51.694;6.256;2022-12-22T05:51:44;9.90;99.90
3923;DHT22;1976;51.694;6.256;2022-12-22T05:54:09;9.90;99.90
3923;DHT22;1976;51.694;6.256;2022-12-22T05:56:35;9.90;99.90
3923;DHT22;1976;51.694;6.256;2022-12-22T05:59:01;10.00;99.90
3923;DHT22;1976;51.694;6.256;2022-12-22T06:01:26;10.00;99.90
3923;DHT22;1976;51.694;6.256;2022-12-22T06:03:52;10.10;99.90
3923;DHT22;1976;51.694;6.256;2022-12-22T06:06:17;10.10;99.90
3923;DHT22;1976;51.694;6.256;2022-12-22T06:08:43;10.20;99.90
3923;DHT22;1976;51.694;6.256;2022-12-22T06:11:09;10.20;99.90
3923;DHT22;1976;51.694;6.256;2022-12-22T06:13:34;10.30;99.90
3923;DHT22;1976;51.694;6.256;2022-12-22T06:16:00;10.30;99.90
3923;DHT22;1976;51.694;6.256;2022-12-22T06:18:26;10.30;99.90
3923;DHT22;1976;51.694;6.256;2022-12-22T06:20:52;10.40;99.90
3923;DHT22;1976;51.694;6.256;2022-12-22T06:23:18;10.40;99.90
3923;DHT22;1976;51.694;6.256;2022-12-22T06:25:59;10.40;99.90
3923;DHT22;1976;51.694;6.256;2022-12-22T06:28:25;10.40;99.90
3923;DHT22;1976;51.694;6.256;2022-12-22T06:30:51;10.40;99.90
3923;DHT22;1976;51.694;6.256;2022-12-22T06:33:16;10.40;99.90
3923;DHT22;1976;51.694;6.256;2022-12-22T06:35:42;10.40;99.90
3923;DHT22;1976;51.694;6.256;2022-12-22T06:38:07;10.40;99.90
3923;DHT22;1976;51.694;6.256;2022-12-22T06:40:33;10.40;99.90
3923;DHT22;1976;51.694;6.256;2022-12-22T06:42:59;10.30;99.90
3923;DHT22;1976;51.694;6.256;2022-12-22T06:45:34;10.30;99.90
3923;DHT22;1976;51.694;6.256;2022-12-22T06:48:00;10.30;99.90
3923;DHT22;1976;51.694;6.256;2022-12-22T06:50:26;10.30;99.90
3923;DHT22;1976;51.694;6.256;2022-12-22T06:52:51;10.30;99.90
3923;DHT22;1976;51.694;6.256;2022-12-22T06:55:17;10.30;99.90
3923;DHT22;1976;51.694;6.256;2022-12-22T06:57:42;10.20;99.90
3923;DHT22;1976;51.694;6.256;2022-12-22T07:00:09;10.20;99.90
3923;DHT22;1976;51.694;6.256;2022-12-22T07:02:34;10.30;99.90
3923;DHT22;1976;51.694;6.256;2022-12-22T07:05:00;10.30;99.90
3923;DHT22;1976;51.694;6.256;2022-12-22T07:07:26;10.20;99.90
3923;DHT22;1976;51.694;6.256;2022-12-22T07:09:51;10.20;99.90
3923;DHT22;1976;51.694;6.256;2022-12-22T07:12:17;10.20;99.90
3923;DHT22;1976;51.694;6.256;2022-12-22T07:14:43;10.20;99.90
3923;DHT22;1976;51.694;6.256;2022-12-22T07:17:08;10.20;99.90
3923;DHT22;1976;51.694;6.256;2022-12-22T07:19:34;10.30;99.90
3923;DHT22;1976;51.694;6.256;2022-12-22T07:21:59;10.30;99.90
3923;DHT22;1976;51.694;6.256;2022-12-22T07:24:25;10.30;99.90
3923;DHT22;1976;51.694;6.256;2022-12-22T07:26:51;10.30;99.90
3923;DHT22;1976;51.694;6.256;2022-12-22T07:29:17;10.30;99.90
3923;DHT22;1976;51.694;6.256;2022-12-22T07:31:43;10.40;99.90
3923;DHT22;1976;51.694;6.256;2022-12-22T07:34:08;10.40;99.90
3923;DHT22;1976;51.694;6.256;2022-12-22T07:36:34;10.40;99.90
3923;DHT22;1976;51.694;6.256;2022-12-22T07:38:59;10.40;99.90
3923;DHT22;1976;51.694;6.256;2022-12-22T07:41:25;10.40;99.90
3923;DHT22;1976;51.694;6.256;2022-12-22T07:44:09;10.40;99.90
3923;DHT22;1976;51.694;6.256;2022-12-22T07:46:37;10.40;99.90
3923;DHT22;1976;51.694;6.256;2022-12-22T07:49:06;10.40;99.90
3923;DHT22;1976;51.694;6.256;2022-12-22T07:51:51;10.40;99.90
3923;DHT22;1976;51.694;6.256;2022-12-22T07:54:17;10.40;99.90
3923;DHT22;1976;51.694;6.256;2022-12-22T07:56:44;10.40;99.90
3923;DHT22;1976;51.694;6.256;2022-12-22T08:01:36;10.50;99.90
3923;DHT22;1976;51.694;6.256;2022-12-22T08:06:31;10.40;99.90
3923;DHT22;1976;51.694;6.256;2022-12-22T08:08:57;10.40;99.90
3923;DHT22;1976;51.694;6.256;2022-12-22T08:11:23;10.40;99.90
3923;DHT22;1976;51.694;6.256;2022-12-22T08:13:48;10.40;99.90
3923;DHT22;1976;51.694;6.256;2022-12-22T08:18:40;10.20;99.90
3923;DHT22;1976;51.694;6.256;2022-12-22T08:21:07;10.20;99.90
3923;DHT22;1976;51.694;6.256;2022-12-22T08:23:33;10.10;99.90
3923;DHT22;1976;51.694;6.256;2022-12-22T08:26:22;10.10;99.90
3923;DHT22;1976;51.694;6.256;2022-12-22T08:29:30;10.10;99.90
3923;DHT22;1976;51.694;6.256;2022-12-22T08:31:47;10.20;99.90
3923;DHT22;1976;51.694;6.256;2022-12-22T08:34:14;10.30;99.90
3923;DHT22;1976;51.694;6.256;2022-12-22T08:36:46;10.40;99.90
3923;DHT22;1976;51.694;6.256;2022-12-22T08:39:13;10.50;99.90
3923;DHT22;1976;51.694;6.256;2022-12-22T08:41:40;10.70;99.90
3923;DHT22;1976;51.694;6.256;2022-12-22T08:44:23;10.80;99.90
3923;DHT22;1976;51.694;6.256;2022-12-22T08:46:50;10.80;99.90
3923;DHT22;1976;51.694;6.256;2022-12-22T08:49:16;10.70;99.90
3923;DHT22;1976;51.694;6.256;2022-12-22T08:51:42;10.70;99.90
3923;DHT22;1976;51.694;6.256;2022-12-22T08:54:08;10.60;99.90
3923;DHT22;1976;51.694;6.256;2022-12-22T08:56:34;10.60;99.90
3923;DHT22;1976;51.694;6.256;2022-12-22T08:59:02;10.50;99.90
3923;DHT22;1976;51.694;6.256;2022-12-22T09:01:31;10.50;99.90
3923;DHT22;1976;51.694;6.256;2022-12-22T09:03:57;10.60;99.90
3923;DHT22;1976;51.694;6.256;2022-12-22T09:06:24;10.60;99.90
3923;DHT22;1976;51.694;6.256;2022-12-22T09:08:55;10.60;99.90
3923;DHT22;1976;51.694;6.256;2022-12-22T09:11:22;10.70;99.90
3923;DHT22;1976;51.694;6.256;2022-12-22T09:13:54;10.80;99.90
3923;DHT22;1976;51.694;6.256;2022-12-22T09:16:20;10.80;99.90
3923;DHT22;1976;51.694;6.256;2022-12-22T09:18:47;10.90;99.90
3923;DHT22;1976;51.694;6.256;2022-12-22T09:23:39;10.80;99.90
3923;DHT22;1976;51.694;6.256;2022-12-22T09:26:09;10.80;99.90
3923;DHT22;1976;51.694;6.256;2022-12-22T09:28:35;10.80;99.90
3923;DHT22;1976;51.694;6.256;2022-12-22T09:31:02;10.80;99.90
3923;DHT22;1976;51.694;6.256;2022-12-22T09:33:28;10.80;99.90
3923;DHT22;1976;51.694;6.256;2022-12-22T09:35:54;10.90;99.90
3923;DHT22;1976;51.694;6.256;2022-12-22T09:38:20;10.90;99.90
3923;DHT22;1976;51.694;6.256;2022-12-22T09:40:46;11.00;99.90
3923;DHT22;1976;51.694;6.256;2022-12-22T09:43:26;11.10;99.90
3923;DHT22;1976;51.694;6.256;2022-12-22T09:45:53;11.40;99.90
3923;DHT22;1976;51.694;6.256;2022-12-22T09:48:19;11.50;99.90
3923;DHT22;1976;51.694;6.256;2022-12-22T09:50:45;11.30;99.90
3923;DHT22;1976;51.694;6.256;2022-12-22T09:53:20;11.10;99.90
3923;DHT22;1976;51.694;6.256;2022-12-22T09:55:48;11.00;99.90
3923;DHT22;1976;51.694;6.256;2022-12-22T09:58:23;10.90;99.90
3923;DHT22;1976;51.694;6.256;2022-12-22T10:00:57;10.80;99.90
3923;DHT22;1976;51.694;6.256;2022-12-22T10:03:40;10.80;99.90
3923;DHT22;1976;51.694;6.256;2022-12-22T10:06:19;10.70;99.90
3923;DHT22;1976;51.694;6.256;2022-12-22T10:08:45;10.60;99.90
3923;DHT22;1976;51.694;6.256;2022-12-22T10:11:14;10.60;99.90
3923;DHT22;1976;51.694;6.256;2022-12-22T10:13:41;10.50;99.90
3923;DHT22;1976;51.694;6.256;2022-12-22T10:16:25;10.60;99.90
3923;DHT22;1976;51.694;6.256;2022-12-22T10:18:59;10.90;99.90
3923;DHT22;1976;51.694;6.256;2022-12-22T10:21:26;11.00;99.90
3923;DHT22;1976;51.694;6.256;2022-12-22T10:23:52;11.40;99.90
3923;DHT22;1976;51.694;6.256;2022-12-22T10:26:24;11.70;99.90
3923;DHT22;1976;51.694;6.256;2022-12-22T10:31:30;12.80;99.90
3923;DHT22;1976;51.694;6.256;2022-12-22T10:34:13;13.40;99.90
3923;DHT22;1976;51.694;6.256;2022-12-22T10:36:51;13.90;99.90
3923;DHT22;1976;51.694;6.256;2022-12-22T10:39:22;13.90;99.90
3923;DHT22;1976;51.694;6.256;2022-12-22T10:41:50;13.90;99.90
3923;DHT22;1976;51.694;6.256;2022-12-22T10:44:22;13.90;99.90
3923;DHT22;1976;51.694;6.256;2022-12-22T10:51:53;15.30;99.90
3923;DHT22;1976;51.694;6.256;2022-12-22T10:54:24;15.40;99.90
3923;DHT22;1976;51.694;6.256;2022-12-22T10:59:53;16.50;99.90
3923;DHT22;1976;51.694;6.256;2022-12-22T11:02:36;16.70;99.90
3923;DHT22;1976;51.694;6.256;2022-12-22T11:05:09;17.80;99.90
3923;DHT22;1976;51.694;6.256;2022-12-22T11:07:38;17.70;99.90
3923;DHT22;1976;51.694;6.256;2022-12-22T11:24:09;16.90;99.90
3923;DHT22;1976;51.694;6.256;2022-12-22T11:29:52;17.40;99.90
3923;DHT22;1976;51.694;6.256;2022-12-22T11:38:12;17.80;99.90
3923;DHT22;1976;51.694;6.256;2022-12-22T11:40:44;17.90;99.90
3923;DHT22;1976;51.694;6.256;2022-12-22T11:43:22;16.10;99.90
3923;DHT22;1976;51.694;6.256;2022-12-22T11:46:18;15.60;99.90
3923;DHT22;1976;51.694;6.256;2022-12-22T12:00:13;15.00;99.90
3923;DHT22;1976;51.694;6.256;2022-12-22T12:07:53;16.20;99.90
3923;DHT22;1976;51.694;6.256;2022-12-22T12:10:39;16.10;99.90
3923;DHT22;1976;51.694;6.256;2022-12-22T12:16:17;14.50;99.90
3923;DHT22;1976;51.694;6.256;2022-12-22T12:22:00;15.20;99.90
3923;DHT22;1976;51.694;6.256;2022-12-22T12:27:30;16.10;99.90
3923;DHT22;1976;51.694;6.256;2022-12-22T12:32:54;16.50;99.90
3923;DHT22;1976;51.694;6.256;2022-12-22T12:37:50;16.10;99.90
3923;DHT22;1976;51.694;6.256;2022-12-22T12:40:42;15.80;99.90
3923;DHT22;1976;51.694;6.256;2022-12-22T12:43:12;15.90;99.90
3923;DHT22;1976;51.694;6.256;2022-12-22T12:45:44;16.60;99.90
3923;DHT22;1976;51.694;6.256;2022-12-22T12:53:13;17.10;99.50
3923;DHT22;1976;51.694;6.256;2022-12-22T12:58:09;16.50;99.90
3923;DHT22;1976;51.694;6.256;2022-12-22T13:03:09;16.70;99.60
3923;DHT22;1976;51.694;6.256;2022-12-22T13:05:59;16.20;99.80
3923;DHT22;1976;51.694;6.256;2022-12-22T13:23:37;13.20;99.90
3923;DHT22;1976;51.694;6.256;2022-12-22T13:26:09;13.40;99.90
3923;DHT22;1976;51.694;6.256;2022-12-22T13:28:40;13.30;99.90
3923;DHT22;1976;51.694;6.256;2022-12-22T13:31:15;13.10;99.90
3923;DHT22;1976;51.694;6.256;2022-12-22T13:33:42;13.00;99.90
3923;DHT22;1976;51.694;6.256;2022-12-22T13:36:18;13.10;99.90
3923;DHT22;1976;51.694;6.256;2022-12-22T13:38:44;12.80;99.90
3923;DHT22;1976;51.694;6.256;2022-12-22T13:41:15;12.70;99.90
3923;DHT22;1976;51.694;6.256;2022-12-22T13:43:44;12.20;99.90
3923;DHT22;1976;51.694;6.256;2022-12-22T13:48:41;11.80;99.90
3923;DHT22;1976;51.694;6.256;2022-12-22T13:51:19;11.60;99.90
3923;DHT22;1976;51.694;6.256;2022-12-22T13:54:09;11.50;99.90
3923;DHT22;1976;51.694;6.256;2022-12-22T13:56:43;11.40;99.90
3923;DHT22;1976;51.694;6.256;2022-12-22T14:02:03;11.10;99.90
3923;DHT22;1976;51.694;6.256;2022-12-22T14:05:22;11.10;99.90
3923;DHT22;1976;51.694;6.256;2022-12-22T14:07:28;11.10;99.90
3923;DHT22;1976;51.694;6.256;2022-12-22T14:09:55;11.10;99.90
3923;DHT22;1976;51.694;6.256;2022-12-22T14:12:22;11.10;99.90
3923;DHT22;1976;51.694;6.256;2022-12-22T14:14:50;11.10;99.90
3923;DHT22;1976;51.694;6.256;2022-12-22T14:19:52;10.90;99.90
3923;DHT22;1976;51.694;6.256;2022-12-22T14:22:27;10.90;99.90
3923;DHT22;1976;51.694;6.256;2022-12-22T14:25:00;10.90;99.90
3923;DHT22;1976;51.694;6.256;2022-12-22T14:30:02;10.90;99.90
3923;DHT22;1976;51.694;6.256;2022-12-22T14:32:41;11.00;99.90
3923;DHT22;1976;51.694;6.256;2022-12-22T14:35:24;11.00;99.90
3923;DHT22;1976;51.694;6.256;2022-12-22T14:37:50;11.10;99.90
3923;DHT22;1976;51.694;6.256;2022-12-22T14:40:36;11.00;99.90
3923;DHT22;1976;51.694;6.256;2022-12-22T14:45:42;11.00;99.90
3923;DHT22;1976;51.694;6.256;2022-12-22T14:48:14;10.90;99.90
3923;DHT22;1976;51.694;6.256;2022-12-22T14:50:49;10.80;99.90
3923;DHT22;1976;51.694;6.256;2022-12-22T14:55:48;10.70;99.90
3923;DHT22;1976;51.694;6.256;2022-12-22T14:58:15;10.60;99.90
3923;DHT22;1976;51.694;6.256;2022-12-22T15:00:47;10.50;99.90
3923;DHT22;1976;51.694;6.256;2022-12-22T15:03:32;10.30;99.90
3923;DHT22;1976;51.694;6.256;2022-12-22T15:08:46;10.10;99.90
3923;DHT22;1976;51.694;6.256;2022-12-22T15:13:44;9.90;99.90
3923;DHT22;1976;51.694;6.256;2022-12-22T15:16:16;9.80;99.90
3923;DHT22;1976;51.694;6.256;2022-12-22T15:18:42;9.70;99.90
3923;DHT22;1976;51.694;6.256;2022-12-22T15:21:12;9.60;99.90
3923;DHT22;1976;51.694;6.256;2022-12-22T15:26:04;9.60;99.90
3923;DHT22;1976;51.694;6.256;2022-12-22T15:28:30;9.50;99.90
3923;DHT22;1976;51.694;6.256;2022-12-22T15:30:58;9.50;99.90
3923;DHT22;1976;51.694;6.256;2022-12-22T15:33:23;9.40;99.90
3923;DHT22;1976;51.694;6.256;2022-12-22T15:35:49;9.40;99.90
3923;DHT22;1976;51.694;6.256;2022-12-22T15:38:18;9.30;99.90
3923;DHT22;1976;51.694;6.256;2022-12-22T15:40:44;9.30;99.90
3923;DHT22;1976;51.694;6.256;2022-12-22T15:43:10;9.30;99.90
3923;DHT22;1976;51.694;6.256;2022-12-22T15:45:37;9.20;99.90
3923;DHT22;1976;51.694;6.256;2022-12-22T15:48:04;9.20;99.90
3923;DHT22;1976;51.694;6.256;2022-12-22T15:50:34;9.20;99.90
3923;DHT22;1976;51.694;6.256;2022-12-22T15:53:02;9.20;99.90
3923;DHT22;1976;51.694;6.256;2022-12-22T15:55:29;9.20;99.90
3923;DHT22;1976;51.694;6.256;2022-12-22T15:57:56;9.20;99.90
3923;DHT22;1976;51.694;6.256;2022-12-22T16:00:24;9.20;99.90
3923;DHT22;1976;51.694;6.256;2022-12-22T16:02:50;9.20;99.90
3923;DHT22;1976;51.694;6.256;2022-12-22T16:05:16;9.20;99.90
3923;DHT22;1976;51.694;6.256;2022-12-22T16:07:43;9.20;99.90
3923;DHT22;1976;51.694;6.256;2022-12-22T16:10:29;9.30;99.90
3923;DHT22;1976;51.694;6.256;2022-12-22T16:15:31;9.30;99.90
3923;DHT22;1976;51.694;6.256;2022-12-22T16:17:58;9.30;99.90
3923;DHT22;1976;51.694;6.256;2022-12-22T16:20:25;9.30;99.90
3923;DHT22;1976;51.694;6.256;2022-12-22T16:22:52;9.30;99.90
3923;DHT22;1976;51.694;6.256;2022-12-22T16:25:20;9.30;99.90
3923;DHT22;1976;51.694;6.256;2022-12-22T16:27:48;9.30;99.90
3923;DHT22;1976;51.694;6.256;2022-12-22T16:30:23;9.20;99.90
3923;DHT22;1976;51.694;6.256;2022-12-22T16:32:49;9.20;99.90
3923;DHT22;1976;51.694;6.256;2022-12-22T16:35:21;9.20;99.90
3923;DHT22;1976;51.694;6.256;2022-12-22T16:37:47;9.20;99.90
3923;DHT22;1976;51.694;6.256;2022-12-22T16:40:19;9.20;99.90
3923;DHT22;1976;51.694;6.256;2022-12-22T16:43:11;9.20;99.90
3923;DHT22;1976;51.694;6.256;2022-12-22T16:45:37;9.20;99.90
3923;DHT22;1976;51.694;6.256;2022-12-22T16:48:52;9.20;99.90
3923;DHT22;1976;51.694;6.256;2022-12-22T16:50:58;9.10;99.90
3923;DHT22;1976;51.694;6.256;2022-12-22T16:53:24;9.10;99.90
3923;DHT22;1976;51.694;6.256;2022-12-22T16:55:50;9.10;99.90
3923;DHT22;1976;51.694;6.256;2022-12-22T16:58:15;9.10;99.90
3923;DHT22;1976;51.694;6.256;2022-12-22T17:00:43;9.10;99.90
3923;DHT22;1976;51.694;6.256;2022-12-22T17:03:13;9.20;99.90
3923;DHT22;1976;51.694;6.256;2022-12-22T17:05:48;9.10;99.90
3923;DHT22;1976;51.694;6.256;2022-12-22T17:10:50;9.20;99.90
3923;DHT22;1976;51.694;6.256;2022-12-22T17:13:17;9.20;99.90
3923;DHT22;1976;51.694;6.256;2022-12-22T17:15:43;9.10;99.90
3923;DHT22;1976;51.694;6.256;2022-12-22T17:18:19;9.10;99.90
3923;DHT22;1976;51.694;6.256;2022-12-22T17:23:34;9.20;99.90
3923;DHT22;1976;51.694;6.256;2022-12-22T17:26:05;9.20;99.90
3923;DHT22;1976;51.694;6.256;2022-12-22T17:28:32;9.20;99.90
3923;DHT22;1976;51.694;6.256;2022-12-22T17:30:58;9.30;99.90
3923;DHT22;1976;51.694;6.256;2022-12-22T17:33:23;9.40;99.90
3923;DHT22;1976;51.694;6.256;2022-12-22T17:35:49;9.40;99.90
3923;DHT22;1976;51.694;6.256;2022-12-22T17:38:17;9.40;99.90
3923;DHT22;1976;51.694;6.256;2022-12-22T17:40:44;9.50;99.90
3923;DHT22;1976;51.694;6.256;2022-12-22T17:43:13;9.60;99.90
3923;DHT22;1976;51.694;6.256;2022-12-22T17:45:40;9.50;99.90
3923;DHT22;1976;51.694;6.256;2022-12-22T17:48:06;9.40;99.90
3923;DHT22;1976;51.694;6.256;2022-12-22T17:52:59;9.30;99.90
3923;DHT22;1976;51.694;6.256;2022-12-22T17:55:27;9.40;99.90
3923;DHT22;1976;51.694;6.256;2022-12-22T17:57:53;9.40;99.90
3923;DHT22;1976;51.694;6.256;2022-12-22T18:02:46;9.40;99.90
3923;DHT22;1976;51.694;6.256;2022-12-22T18:05:20;9.40;99.90
3923;DHT22;1976;51.694;6.256;2022-12-22T18:07:48;9.40;99.90
3923;DHT22;1976;51.694;6.256;2022-12-22T18:10:23;9.40;99.90
3923;DHT22;1976;51.694;6.256;2022-12-22T18:12:51;9.40;99.90
3923;DHT22;1976;51.694;6.256;2022-12-22T18:15:18;9.40;99.90
3923;DHT22;1976;51.694;6.256;2022-12-22T18:20:18;9.40;99.90
3923;DHT22;1976;51.694;6.256;2022-12-22T18:22:44;9.40;99.90
3923;DHT22;1976;51.694;6.256;2022-12-22T18:25:31;9.40;99.90
3923;DHT22;1976;51.694;6.256;2022-12-22T18:27:57;9.50;99.90
3923;DHT22;1976;51.694;6.256;2022-12-22T18:30:25;9.50;99.90
3923;DHT22;1976;51.694;6.256;2022-12-22T18:32:52;9.50;99.90
3923;DHT22;1976;51.694;6.256;2022-12-22T18:35:21;9.50;99.90
3923;DHT22;1976;51.694;6.256;2022-12-22T18:37:48;9.60;99.90
3923;DHT22;1976;51.694;6.256;2022-12-22T18:40:31;9.60;99.90
3923;DHT22;1976;51.694;6.256;2022-12-22T18:42:59;9.70;99.90
3923;DHT22;1976;51.694;6.256;2022-12-22T18:45:27;9.80;99.90
3923;DHT22;1976;51.694;6.256;2022-12-22T18:47:54;9.80;99.90
3923;DHT22;1976;51.694;6.256;2022-12-22T18:50:25;9.80;99.90
3923;DHT22;1976;51.694;6.256;2022-12-22T18:52:52;9.90;99.90
3923;DHT22;1976;51.694;6.256;2022-12-22T18:55:29;9.90;99.90
3923;DHT22;1976;51.694;6.256;2022-12-22T18:57:56;9.90;99.90
3923;DHT22;1976;51.694;6.256;2022-12-22T19:00:34;10.00;99.90
3923;DHT22;1976;51.694;6.256;2022-12-22T19:03:01;10.00;99.90
3923;DHT22;1976;51.694;6.256;2022-12-22T19:05:30;10.00;99.90
3923;DHT22;1976;51.694;6.256;2022-12-22T19:07:56;10.00;99.90
3923;DHT22;1976;51.694;6.256;2022-12-22T19:10:32;10.00;99.90
3923;DHT22;1976;51.694;6.256;2022-12-22T19:12:59;10.00;99.90
3923;DHT22;1976;51.694;6.256;2022-12-22T19:15:34;10.00;99.90
3923;DHT22;1976;51.694;6.256;2022-12-22T19:18:01;10.00;99.90
3923;DHT22;1976;51.694;6.256;2022-12-22T19:20:27;10.00;99.90
3923;DHT22;1976;51.694;6.256;2022-12-22T19:22:53;10.10;99.90
3923;DHT22;1976;51.694;6.256;2022-12-22T19:25:26;10.10;99.90